Tiempo atmosférico en la estación meteorológica de Castell Del Ferro, Granada (235 m.)



Fecha
DESCASC
Temp. máxima en grados centígrados (hora)
DESCASC
Temp. mínima en grados centígrados (hora)
DESCASC
Temp. media en grados centígrados
DESCASC
Racha de viento máxima en m/sg (hora)
DESCASC
Velocidad máxima media en intervalos de 10 minutos(hora)
DESCASC
Precipitaciones diarias en mm
DESCASC
Precipitaciones de 00:00 a 06:00 en mm
DESCASC
Precipitaciones de 06:00 a 12:00 en mm
DESCASC
Precipitaciones de 12:00 a 18:00 en mm
DESCASC
Precipitaciones de 18:00 a 24:00 en mm
DESCASC

Gráficas

Temp. máximas Temp. mínimas Temp. medias Precipitaciones Rachas de viento máximas Velocidades máximas media en intervalos de 10 minutos

Datos horarios

Fecha y hora oficial Temperatura (ºC) Velocidad del viento (km/h) Dirección del viento Racha (km/h) Dirección de racha Precipitación (mm) Presión (hPa) Tendencia (hPa) Humedad (%)
2019-12-14 23:00:00 12.7 5 Sudoeste 8 Sudoeste 0 -- -- 64
2019-12-14 22:00:00 13.2 5 Sur 9 Sur 0 -- -- 58
2019-12-14 21:00:00 14.8 5 Oeste 9 Oeste 0 -- -- 52
2019-12-14 20:00:00 14.4 8 Oeste 12 Oeste 0 -- -- 56
2019-12-14 19:00:00 13.6 4 Oeste 5 Oeste 0 -- -- 65
2019-12-14 18:00:00 13.8 2 Sudeste 6 Sudoeste 0 -- -- 65
2019-12-14 17:00:00 14.8 4 Oeste 6 Sur 0 -- -- 68
2019-12-14 16:00:00 16.7 3 Sudeste 11 Sudeste 0 -- -- 67
2019-12-14 15:00:00 17.7 6 Sudeste 11 Sudeste 0 -- -- 55
2019-12-14 14:00:00 17.6 5 Este 13 Sudeste 0 -- -- 58
2019-12-14 13:00:00 17.6 9 Sudeste 14 Sudeste 0 -- -- 49
2019-12-14 12:00:00 18.2 6 Este 14 Sudeste 0 -- -- 53
2019-12-14 11:00:00 19.1 2 Este 15 Noroeste 0 -- -- 49
2019-12-14 10:00:00 16.3 7 Oeste 10 Oeste 0 -- -- 47
2019-12-14 09:00:00 15.7 7 Oeste 15 Oeste 0 -- -- 43
2019-12-14 08:00:00 15.3 7 Oeste 16 Oeste 0 -- -- 42
2019-12-14 07:00:00 14.4 8 Oeste 19 Oeste 0 -- -- 47
2019-12-14 06:00:00 15.9 7 Noroeste 24 Noroeste 0 -- -- 41
2019-12-14 05:00:00 16 14 Noroeste 27 Noroeste 0 -- -- 42
2019-12-14 04:00:00 16.4 12 Noroeste 31 Noroeste 0 -- -- 41
2019-12-14 03:00:00 16.2 14 Oeste 26 Oeste 0 -- -- 41
2019-12-14 02:00:00 15.9 7 Oeste 26 Noroeste 0 -- -- 43
2019-12-14 01:00:00 16.3 14 Noroeste 27 Noroeste 0 -- -- 44
2019-12-14 00:00:00 16.5 12 Oeste 19 Oeste 0 -- -- 43
2019-12-13 23:00:00 17 12 Oeste 24 Oeste 0 -- -- 41
2019-12-13 22:00:00 17.5 14 Oeste 27 Noroeste 0 -- -- 40
2019-12-13 21:00:00 17.7 13 Oeste 28 Noroeste 0 -- -- 39
2019-12-13 20:00:00 16.9 5 Oeste 29 Noroeste 0 -- -- 44
2019-12-13 19:00:00 18.8 21 Noroeste 64 Noroeste 0 -- -- 37
2019-12-13 18:00:00 18 41 Oeste 76 Oeste 0 -- -- 42
2019-12-13 17:00:00 17.6 55 Oeste 93 Oeste 0 -- -- 46
2019-12-13 16:00:00 17.3 49 Oeste 77 Oeste 0 -- -- 50
2019-12-13 15:00:00 17.3 38 Oeste 68 Noroeste 0 -- -- 51
2019-12-13 14:00:00 17.5 34 Noroeste 88 Oeste 0 -- -- 47
2019-12-13 13:00:00 16.6 36 Oeste 74 Oeste 0 -- -- 54
2019-12-13 12:00:00 16.4 50 Oeste 101 Oeste 0 -- -- 55
2019-12-13 11:00:00 16.4 56 Oeste 96 Oeste 0 -- -- 54
2019-12-13 10:00:00 16 48 Oeste 82 Oeste 0 -- -- 58
2019-12-13 09:00:00 14.8 39 Oeste 66 Oeste 0.2 -- -- 69
2019-12-13 08:00:00 14.9 42 Oeste 67 Oeste 0 -- -- 72
2019-12-13 07:00:00 15 27 Oeste 65 Sudoeste 0 -- -- 70
2019-12-13 06:00:00 14.5 32 Sudoeste 55 Oeste 0 -- -- 72
2019-12-13 05:00:00 14.1 31 Sudoeste 52 Sudoeste 0 -- -- 75
2019-12-13 04:00:00 14.6 26 Sudoeste 59 Sudoeste 0 -- -- 67
2019-12-13 03:00:00 13.9 26 Sudoeste 72 Oeste 0 -- -- 69
2019-12-13 02:00:00 14.3 47 Oeste 95 Oeste 0 -- -- 63
2019-12-13 01:00:00 14.3 49 Oeste 85 Oeste 0 -- -- 62
2019-12-13 00:00:00 14.1 33 Sudoeste 65 Oeste 0 -- -- 60
2019-12-12 23:00:00 13.8 41 Oeste 84 Oeste 0 -- -- 60
2019-12-12 22:00:00 13.8 44 Oeste 73 Oeste 0 -- -- 57
2019-12-12 21:00:00 13.8 41 Oeste 71 Oeste 0 -- -- 55
2019-12-12 20:00:00 13.8 20 Oeste 59 Oeste 0 -- -- 51
2019-12-12 19:00:00 13.6 32 Sudoeste 68 Oeste 0 -- -- 50
2019-12-12 18:00:00 13.5 30 Sudoeste 69 Oeste 0 -- -- 48
2019-12-12 17:00:00 14 30 Sudoeste 67 Noroeste 0 -- -- 45
2019-12-12 16:00:00 16.6 25 Oeste 65 Oeste 0 -- -- 30
2019-12-12 15:00:00 16.2 35 Oeste 62 Sudoeste 0 -- -- 37
2019-12-12 14:00:00 16.9 10 Este 23 Este 0 -- -- 41
2019-12-12 13:00:00 16.9 15 Este 34 Noroeste 0 -- -- 38
2019-12-12 12:00:00 17.2 11 Este 22 Nordeste 0 -- -- 38
2019-12-12 11:00:00 15.7 4 Oeste 19 Oeste 0 -- -- 36
2019-12-12 10:00:00 14.3 13 Noroeste 47 Oeste 0 -- -- 36
2019-12-12 09:00:00 13.3 15 Noroeste 25 Noroeste 0 -- -- 37
2019-12-12 08:00:00 12.8 8 Sur 17 Noroeste 0 -- -- 52
2019-12-12 07:00:00 13.6 10 Oeste 16 Oeste 0 -- -- 46
2019-12-12 06:00:00 14.4 9 Oeste 16 Oeste 0 -- -- 45
2019-12-12 05:00:00 14.2 3 Oeste 10 Oeste 0 -- -- 44
2019-12-12 04:00:00 14.6 4 Oeste 10 Oeste 0 -- -- 44
2019-12-12 03:00:00 14.5 3 Noroeste 12 Norte 0 -- -- 43
2019-12-12 02:00:00 14.4 6 Oeste 12 Oeste 0 -- -- 43
2019-12-12 01:00:00 14.9 4 Oeste 18 Noroeste 0 -- -- 43
2019-12-12 00:00:00 14.6 13 Oeste 25 Noroeste 0 -- -- 44
2019-12-11 23:00:00 14.7 14 Oeste 27 Noroeste 0 -- -- 45
2019-12-11 22:00:00 15.3 16 Noroeste 24 Noroeste 0 -- -- 41
2019-12-11 21:00:00 15.5 7 Oeste 14 Oeste 0 -- -- 36
2019-12-11 20:00:00 16.5 7 Oeste 24 Oeste 0 -- -- 38
2019-12-11 19:00:00 17.6 6 Sudeste 58 Noroeste 0 -- -- 44
2019-12-11 18:00:00 18.2 43 Oeste 71 Oeste 0 -- -- 41
2019-12-11 17:00:00 18.4 41 Oeste 66 Oeste 0 -- -- 34
2019-12-11 16:00:00 19.3 34 Oeste 53 Oeste 0 -- -- 25
2019-12-11 15:00:00 21.6 24 Oeste 48 Oeste 0 -- -- 24
2019-12-11 14:00:00 21.6 27 Oeste 49 Oeste 0 -- -- 18
2019-12-11 13:00:00 19.7 21 Oeste 42 Oeste 0 -- -- 36
2019-12-11 12:00:00 16.2 8 Sudeste 15 Sudeste 0 -- -- 69
2019-12-11 11:00:00 16 6 Este 13 Este 0 -- -- 67
2019-12-11 10:00:00 15.6 5 Sudeste 9 Sudeste 0 -- -- 61
2019-12-11 09:00:00 13 6 Sudeste 13 Sudoeste 0 -- -- 66
2019-12-11 08:00:00 11.6 4 Sudeste 11 Noroeste 0 -- -- 58
2019-12-11 07:00:00 12 4 Sur 9 Sudoeste 0 -- -- 51
2019-12-11 06:00:00 11.2 4 Sur 9 Sudoeste 0 -- -- 67
2019-12-11 05:00:00 11.2 0 Calma 5 Sudoeste 0 -- -- 67
2019-12-11 04:00:00 11.6 0 Calma 8 Sudoeste 0 -- -- 71
2019-12-11 03:00:00 11.7 0 Calma 5 Sudeste 0 -- -- 71
2019-12-11 02:00:00 11.5 0 Calma 5 Sudeste 0 -- -- 65
2019-12-11 01:00:00 11.6 3 Sudeste 4 Sudeste 0 -- -- 68
2019-12-11 00:00:00 11.9 0 Calma 3 Sudoeste 0 -- -- 71
2019-12-10 23:00:00 12.2 0 Calma 4 Oeste 0 -- -- 75
2019-12-10 22:00:00 12.5 0 Calma 8 Oeste 0 -- -- 75
2019-12-10 21:00:00 12.8 2 Sudeste 4 Sur 0 -- -- 74
2019-12-10 20:00:00 13.1 3 Sudeste 6 Oeste 0 -- -- 76
2019-12-10 19:00:00 13.2 3 Oeste 8 Sur 0 -- -- 75
2019-12-10 18:00:00 13.7 6 Sur 11 Sudeste 0 -- -- 80
2019-12-10 17:00:00 14.4 5 Sur 8 Sudeste 0 -- -- 77
2019-12-10 16:00:00 16.9 4 Sudeste 11 Sudeste 0 -- -- 69
2019-12-10 15:00:00 18.5 4 Este 9 Nordeste 0 -- -- 67
2019-12-10 14:00:00 18.1 5 Nordeste 11 Nordeste 0 -- -- 69
2019-12-10 13:00:00 17.9 5 Nordeste 10 Este 0 -- -- 57
2019-12-10 12:00:00 18.6 7 Este 10 Este 0 -- -- 49
2019-12-10 11:00:00 18.3 4 Sudeste 7 Este 0 -- -- 53
2019-12-10 10:00:00 16.4 0 Calma 8 Sudeste 0 -- -- 56
2019-12-10 09:00:00 14.3 0 Calma 8 Sudoeste 0 -- -- 57
2019-12-10 08:00:00 12.5 2 Sudeste 5 Sudeste 0 -- -- 61
2019-12-10 07:00:00 12 3 Sur 6 Sudoeste 0 -- -- 70
2019-12-10 06:00:00 12.9 4 Sur 8 Oeste 0 -- -- 66
2019-12-10 05:00:00 12.7 6 Sudoeste 12 Sur 0 -- -- 72
2019-12-10 04:00:00 14.9 3 Oeste 7 Oeste 0 -- -- 52
2019-12-10 03:00:00 15 0 Calma 6 Noroeste 0 -- -- 57
2019-12-10 02:00:00 15.4 2 Oeste 5 Sudoeste 0 -- -- 53
2019-12-10 01:00:00 15.4 0 Calma -- -- 0 -- -- 56
2019-12-10 00:00:00 14.8 0 Calma 6 Sudeste 0 -- -- 59
2019-12-09 23:00:00 16.8 2 Sudeste 12 Oeste 0 -- -- 54
2019-12-09 22:00:00 17 4 Oeste 8 Oeste 0 -- -- 51
2019-12-09 21:00:00 16.5 7 Oeste 12 Oeste 0 -- -- 53
2019-12-09 20:00:00 15.1 0 Calma 4 Oeste 0 -- -- 61
2019-12-09 19:00:00 15.1 0 Calma 6 Oeste 0 -- -- 61
2019-12-09 18:00:00 15.4 0 Calma 9 Sur 0 -- -- 64
2019-12-09 17:00:00 16.4 0 Calma 5 Oeste 0 -- -- 70
2019-12-09 16:00:00 19.4 0 Calma 6 Sudeste 0 -- -- 61
2019-12-09 15:00:00 21 3 Sudeste 9 Sudeste 0 -- -- 47
2019-12-09 14:00:00 19.4 0 Calma 9 Este 0 -- -- 57
2019-12-09 13:00:00 18.7 5 Este 16 Sudeste 0 -- -- 57
2019-12-09 12:00:00 20.2 3 Este 6 Este 0 -- -- 50
2019-12-09 11:00:00 19 3 Noroeste 9 Sudeste 0 -- -- 45
2019-12-09 10:00:00 18.8 0 Calma 8 Sur 0 -- -- 45
2019-12-09 09:00:00 15.6 4 Sur 8 Sudeste 0 -- -- 49
2019-12-09 08:00:00 14.4 3 Sudeste 5 Sudeste 0 -- -- 44
2019-12-09 07:00:00 14.5 2 Oeste 10 Noroeste 0 -- -- 45
2019-12-09 06:00:00 14.7 0 Calma 10 Sudeste 0 -- -- 43
2019-12-09 05:00:00 15.1 2 Oeste 14 Oeste 0 -- -- 45
2019-12-09 04:00:00 13.2 4 Nordeste 9 Oeste 0 -- -- 54
2019-12-09 03:00:00 15 4 Noroeste 17 Oeste 0 -- -- 48
2019-12-09 02:00:00 14.6 10 Oeste 17 Oeste 0 -- -- 51
2019-12-09 01:00:00 13.6 4 Sur 9 Sudoeste 0 -- -- 58
2019-12-09 00:00:00 13.3 3 Sudeste 8 Oeste 0 -- -- 74
2019-12-08 23:00:00 12.8 2 Sur 7 Sur 0 -- -- 84
2019-12-08 22:00:00 13.2 3 Sur 11 Oeste 0 -- -- 85
2019-12-08 21:00:00 13.4 7 Oeste 10 Sudoeste 0 -- -- 77
2019-12-08 20:00:00 13.2 2 Sudoeste 8 Sur 0 -- -- 82
2019-12-08 19:00:00 13.2 2 Oeste 10 Sudeste 0 -- -- 84
2019-12-08 18:00:00 13.5 5 Sudeste 11 Sur 0 -- -- 78
2019-12-08 17:00:00 14.5 5 Sudeste 16 Sur 0 -- -- 66
2019-12-08 16:00:00 17.4 3 Sudeste 8 Este 0 -- -- 65
2019-12-08 15:00:00 17.8 2 Norte 12 Este 0 -- -- 61
2019-12-08 14:00:00 17.2 6 Este 16 Este 0 -- -- 66
2019-12-08 13:00:00 16.5 8 Noroeste 12 Noroeste 0 -- -- 69
2019-12-08 12:00:00 16.3 5 Este 9 Este 0 -- -- 65
2019-12-08 11:00:00 15.3 4 Nordeste 9 Este 0 -- -- 69
2019-12-08 10:00:00 15.2 0 Calma 4 Sudeste 0 -- -- 70
2019-12-08 09:00:00 11.7 2 Sur 5 Sur 0 -- -- 82
2019-12-08 08:00:00 10.5 0 Calma 4 Sudoeste 0 -- -- 84
2019-12-08 07:00:00 10.8 0 Calma 5 Sudoeste 0 -- -- 84
2019-12-08 06:00:00 10.8 0 Calma 5 Sudoeste 0 -- -- 84
2019-12-08 05:00:00 11 2 Oeste 6 Sur 0 -- -- 83
2019-12-08 04:00:00 11.1 4 Sur 6 Sur 0 -- -- 84
2019-12-08 03:00:00 11.2 3 Sur 4 Sur 0 -- -- 83
2019-12-08 02:00:00 11.5 0 Calma 10 Sudoeste 0 -- -- 83
2019-12-08 01:00:00 12.1 5 Sudoeste 10 Oeste 0 -- -- 80
2019-12-08 00:00:00 11.8 5 Sur 8 Sudoeste 0 -- -- 86
2019-12-07 23:00:00 12 3 Sudoeste 6 Sudoeste 0 -- -- 86
2019-12-07 22:00:00 12.1 3 Sudoeste 6 Sur 0 -- -- 88
2019-12-07 21:00:00 12.2 3 Sudoeste 7 Sudeste 0 -- -- 86
2019-12-07 20:00:00 12.7 2 Sudoeste 13 Oeste 0 -- -- 83
2019-12-07 19:00:00 13.6 8 Oeste 18 Sudoeste 0 -- -- 78
2019-12-07 18:00:00 14.1 8 Oeste 17 Sudoeste 0 -- -- 78
2019-12-07 17:00:00 15 11 Sudoeste 27 Oeste 0 -- -- 73
2019-12-07 16:00:00 15.6 19 Oeste 32 Oeste 0 -- -- 74
2019-12-07 15:00:00 17.1 15 Oeste 30 Oeste 0 -- -- 66
2019-12-07 14:00:00 18.2 8 Noroeste 22 Sudoeste 0 -- -- 55
2019-12-07 13:00:00 17.3 11 Oeste 24 Sudoeste 0 -- -- 59
2019-12-07 12:00:00 17 13 Sudoeste 21 Sudoeste 0 -- -- 67
2019-12-07 11:00:00 17.4 4 Sudoeste 14 Sudeste 0 -- -- 55
2019-12-07 10:00:00 16.1 3 Este 9 Noroeste 0 -- -- 54
2019-12-07 09:00:00 13.4 0 Calma 17 Sudoeste 0 -- -- 60
2019-12-07 08:00:00 14 6 Sudoeste 10 Sur 0 -- -- 56
2019-12-07 07:00:00 14.4 3 Sur 10 Sudoeste 0 -- -- 55
2019-12-07 06:00:00 14.8 6 Sudoeste 9 Sudoeste 0 -- -- 52
2019-12-07 05:00:00 14.9 0 Calma 4 Sudeste 0 -- -- 53
2019-12-07 04:00:00 15.3 3 Sudeste 7 Norte 0 -- -- 50
2019-12-07 03:00:00 14.9 0 Calma 5 Oeste 0 -- -- 54
2019-12-07 02:00:00 14.5 0 Calma 6 Sudoeste 0 -- -- 58
2019-12-07 01:00:00 13.6 2 Oeste 8 Oeste 0 -- -- 71
2019-12-07 00:00:00 13.5 4 Sudoeste 10 Sur 0 -- -- 79
2019-12-06 23:00:00 13.4 7 Sur 11 Sur 0 -- -- 81
2019-12-06 22:00:00 13.6 5 Sur 10 Sur 0 -- -- 80
2019-12-06 21:00:00 13.7 5 Sur 10 Sur 0 -- -- 80
2019-12-06 20:00:00 14.1 2 Oeste 17 Sudeste 0 -- -- 77
2019-12-06 19:00:00 14.2 12 Este 30 Sudeste 0 -- -- 77
2019-12-06 18:00:00 14.3 19 Sudeste 33 Este 0 -- -- 81
2019-12-06 17:00:00 14.8 21 Este 32 Este 0 -- -- 80
2019-12-06 16:00:00 15.5 19 Sudeste 27 Este 0 -- -- 75
2019-12-06 15:00:00 16.4 17 Este 26 Sudeste 0 -- -- 74
2019-12-06 14:00:00 17.4 12 Sudeste 23 Sudeste 0 -- -- 64
2019-12-06 13:00:00 17.5 14 Este 29 Este 0 -- -- 64
2019-12-06 12:00:00 17.9 10 Sudeste 26 Sudeste 0 -- -- 58
2019-12-06 11:00:00 17.9 8 Sudeste 14 Sudeste 0 -- -- 50
2019-12-06 10:00:00 16 6 Noroeste 12 Noroeste 0 -- -- 53
2019-12-06 09:00:00 13.9 3 Sudeste 11 Sudeste 0 -- -- 65
2019-12-06 08:00:00 13.4 5 Sudeste 17 Sudeste 0 -- -- 71
2019-12-06 07:00:00 13.4 7 Sur 10 Sur 0 -- -- 67
2019-12-06 06:00:00 13.7 6 Sur 13 Sur 0 -- -- 62
2019-12-06 05:00:00 14.6 9 Sudeste 15 Sudeste 0 -- -- 59
2019-12-06 04:00:00 15.3 0 Calma 9 Noroeste 0 -- -- 49
2019-12-06 03:00:00 14.6 2 Sur 9 Sudeste 0 -- -- 55
2019-12-06 02:00:00 14.4 3 Sur 14 Sudeste 0 -- -- 61
2019-12-06 01:00:00 15.2 6 Sudeste 12 Sudeste 0 -- -- 52
2019-12-06 00:00:00 14.8 0 Calma 12 Oeste 0 -- -- 53
2019-12-05 23:00:00 14.9 6 Noroeste 17 Norte 0 -- -- 52
2019-12-05 22:00:00 13.6 2 Este 10 Norte 0 -- -- 58
2019-12-05 21:00:00 12.6 0 Calma 6 Noroeste 0 -- -- 69
2019-12-05 20:00:00 12.5 3 Sudeste 11 Sudeste 0 -- -- 79
2019-12-05 19:00:00 13.1 7 Sudeste 27 Sudeste 0 -- -- 79
2019-12-05 18:00:00 13.5 17 Este 33 Este 0 -- -- 79
2019-12-05 17:00:00 13.9 19 Este 31 Este 0 -- -- 80
2019-12-05 16:00:00 14.7 22 Este 31 Este 0 -- -- 74
2019-12-05 15:00:00 15.3 19 Este 28 Este 0 -- -- 71
2019-12-05 14:00:00 15.3 19 Este 27 Sudeste 0 -- -- 72
2019-12-05 13:00:00 14.7 17 Este 28 Sudeste 0 -- -- 72
2019-12-05 12:00:00 14.3 12 Este 24 Este 0 -- -- 77
2019-12-05 11:00:00 13.9 9 Este 15 Este 0 -- -- 71
2019-12-05 10:00:00 13.2 4 Este 10 Sudeste 0 -- -- 70
2019-12-05 09:00:00 12.2 0 Calma 10 Norte 0 -- -- 71
2019-12-05 08:00:00 11.8 0 Calma 7 Oeste 0 -- -- 75
2019-12-05 07:00:00 11.3 3 Sudoeste 6 Sudoeste 0 -- -- 66
2019-12-05 06:00:00 11.8 5 Oeste 7 Oeste 0 -- -- 70
2019-12-05 05:00:00 11.7 0 Calma 9 Sudoeste 0 -- -- 69
2019-12-05 04:00:00 12.3 9 Oeste 15 Noroeste 0 -- -- 57
2019-12-05 03:00:00 12.3 9 Oeste 17 Noroeste 0 -- -- 57
2019-12-05 02:00:00 11.5 5 Oeste 13 Oeste 0 -- -- 61
2019-12-05 01:00:00 12.2 7 Oeste 13 Noroeste 0 -- -- 58
2019-12-05 00:00:00 12.2 3 Oeste 10 Oeste 0 -- -- 57
2019-12-04 23:00:00 12.4 3 Noroeste 13 Oeste 0 -- -- 57
2019-12-04 22:00:00 12.6 10 Oeste 18 Noroeste 0 -- -- 59
2019-12-04 21:00:00 13.2 14 Oeste 32 Oeste 0 -- -- 60
2019-12-04 20:00:00 13.8 19 Oeste 51 Oeste 0 -- -- 58
2019-12-04 19:00:00 12.7 29 Oeste 48 Oeste 0 -- -- 79
2019-12-04 18:00:00 13 27 Oeste 41 Oeste 0 -- -- 79
2019-12-04 17:00:00 14.1 18 Oeste 35 Oeste 0 -- -- 74
2019-12-04 16:00:00 15 19 Oeste 35 Oeste 0 -- -- 69
2019-12-04 15:00:00 15.3 25 Oeste 53 Oeste 0 -- -- 69
2019-12-04 14:00:00 15.8 32 Oeste 51 Oeste 0 -- -- 66
2019-12-04 13:00:00 16.5 23 Oeste 42 Oeste 0 -- -- 59
2019-12-04 12:00:00 16.6 23 Oeste 43 Oeste 0 -- -- 55
2019-12-04 11:00:00 16.1 22 Oeste 40 Oeste 0 -- -- 51
2019-12-04 10:00:00 15.4 28 Oeste 50 Oeste 0 -- -- 53
2019-12-04 09:00:00 14 13 Norte 30 Oeste 0 -- -- 56
2019-12-04 08:00:00 11.5 4 Oeste 18 Oeste 0 -- -- 65
2019-12-04 07:00:00 11.1 7 Oeste 25 Noroeste 0 -- -- 72
2019-12-04 06:00:00 12.9 13 Noroeste 36 Oeste 0 -- -- 62
2019-12-04 05:00:00 13.8 30 Oeste 41 Oeste 0.2 -- -- 52
2019-12-04 04:00:00 12.6 19 Noroeste 33 Noroeste 0 -- -- 59
2019-12-04 03:00:00 11.4 5 Oeste 11 Oeste 0 -- -- 67
2019-12-04 02:00:00 12 6 Oeste 12 Oeste 0 -- -- 67
2019-12-04 01:00:00 11.1 0 Calma 6 Sur 0 -- -- 76
2019-12-04 00:00:00 12.1 3 Sudeste 25 Oeste 0 -- -- 73
2019-12-03 23:00:00 12.7 16 Oeste 27 Oeste 0 -- -- 82
2019-12-03 22:00:00 12.7 6 Noroeste 19 Oeste 0 -- -- 82
2019-12-03 21:00:00 12.8 5 Este 24 Oeste 0 -- -- 79
2019-12-03 20:00:00 12.9 5 Este 15 Sudeste 0 -- -- 80
2019-12-03 19:00:00 13 0 Calma 18 Oeste 0 -- -- 75
2019-12-03 18:00:00 13 8 Oeste 12 Oeste 0 -- -- 76
2019-12-03 17:00:00 13.8 9 Sudoeste 12 Sudoeste 0.2 -- -- 70
2019-12-03 16:00:00 14.3 5 Sur 12 Sur 0.2 -- -- 65
2019-12-03 15:00:00 14.9 4 Sur 14 Sur 0 -- -- 58
2019-12-03 14:00:00 13.1 8 Sur 33 Nordeste 0.4 -- -- 68
2019-12-03 13:00:00 14.9 10 Nordeste 29 Este 0 -- -- 59
2019-12-03 12:00:00 14.5 6 Sudeste 20 Sur 0 -- -- 71
2019-12-03 11:00:00 12.1 9 Oeste 14 Oeste 0.8 -- -- 79
2019-12-03 10:00:00 11.6 10 Oeste 23 Este 5.2 -- -- 78
2019-12-03 09:00:00 13.3 2 Oeste 12 Sudeste 0 -- -- 71
2019-12-03 08:00:00 13.7 4 Sur 10 Sur 0 -- -- 65
2019-12-03 07:00:00 13.7 6 Oeste 9 Oeste 0 -- -- 63
2019-12-03 06:00:00 12.2 4 Sur 9 Sudeste 0 -- -- 75
2019-12-03 05:00:00 13.7 3 Este 22 Noroeste 0.2 -- -- 66
2019-12-03 04:00:00 12.6 9 Noroeste 13 Noroeste 0.4 -- -- 78
2019-12-03 03:00:00 11.5 3 Sudoeste 8 Oeste 0.2 -- -- 87
2019-12-03 02:00:00 11.7 7 Oeste 14 Noroeste 0 -- -- 88
2019-12-03 01:00:00 11.6 6 Oeste 14 Oeste 1.4 -- -- 86
2019-12-03 00:00:00 11.8 3 Sudoeste 33 Este 2.4 -- -- 92
2019-12-02 23:00:00 13 12 Este 25 Este 0 -- -- 84
2019-12-02 22:00:00 12.9 4 Este 16 Nordeste 0.2 -- -- 82
2019-12-02 21:00:00 12.8 9 Este 21 Sudeste 0 -- -- 83
2019-12-02 20:00:00 13.1 15 Este 30 Sudeste 0 -- -- 79
2019-12-02 19:00:00 12.8 17 Este 34 Este 0 -- -- 84
2019-12-02 18:00:00 13.1 24 Este 38 Sudeste 0 -- -- 80
2019-12-02 17:00:00 13.3 23 Este 35 Este 0 -- -- 84
2019-12-02 16:00:00 13.7 17 Este 30 Este 0 -- -- 86
2019-12-02 15:00:00 14.3 19 Este 30 Sudeste 0 -- -- 82
2019-12-02 14:00:00 14.3 17 Este 30 Este 0 -- -- 82
2019-12-02 13:00:00 14.5 18 Este 28 Sudeste 0 -- -- 78
2019-12-02 12:00:00 15 14 Este 22 Este 0 -- -- 73
2019-12-02 11:00:00 14.6 9 Este 15 Sudeste 0 -- -- 74
2019-12-02 10:00:00 14 4 Este 8 Sudoeste 0 -- -- 67
2019-12-02 09:00:00 11.8 7 Sudoeste 9 Sudoeste 0 -- -- 77
2019-12-02 08:00:00 11.6 0 Calma 5 Este 0 -- -- 79
2019-12-02 07:00:00 11.7 2 Oeste 12 Oeste 0 -- -- 77
2019-12-02 06:00:00 11.2 2 Oeste 10 Oeste 0 -- -- 81
2019-12-02 05:00:00 11.5 9 Sudoeste 12 Sudoeste 0 -- -- 84
2019-12-02 04:00:00 11.4 8 Oeste 12 Oeste 0 -- -- 86
2019-12-02 03:00:00 11.2 3 Sudoeste 9 Oeste 0 -- -- 88
2019-12-02 02:00:00 12 6 Oeste 12 Sudoeste 0 -- -- 87
2019-12-02 01:00:00 12.3 4 Oeste 17 Oeste 0.6 -- -- 89
2019-12-02 00:00:00 12.6 2 Sudoeste 20 Oeste 0.2 -- -- 87
2019-12-01 23:00:00 12.6 7 Oeste 25 Sudoeste 0.4 -- -- 88
2019-12-01 22:00:00 12.6 9 Oeste 21 Oeste 0 -- -- 83
2019-12-01 21:00:00 12.9 15 Oeste 31 Noroeste 0 -- -- 83
2019-12-01 20:00:00 13.5 17 Noroeste 31 Oeste 0 -- -- 78
2019-12-01 19:00:00 13.6 23 Oeste 43 Oeste 0 -- -- 74
2019-12-01 18:00:00 13.6 21 Oeste 39 Oeste 0 -- -- 71
2019-12-01 17:00:00 13.8 20 Oeste 37 Oeste 0 -- -- 70
2019-12-01 16:00:00 14.1 22 Oeste 39 Oeste 0 -- -- 76
2019-12-01 15:00:00 14.4 20 Oeste 35 Oeste 0 -- -- 74
2019-12-01 14:00:00 14.9 23 Oeste 42 Oeste 0 -- -- 71
2019-12-01 13:00:00 15.2 31 Oeste 46 Oeste 0 -- -- 71
2019-12-01 12:00:00 15.9 23 Oeste 39 Oeste 0 -- -- 63
2019-12-01 11:00:00 15.9 19 Oeste 33 Oeste 0 -- -- 62
2019-12-01 10:00:00 16.2 22 Oeste 39 Oeste 0 -- -- 47
2019-12-01 09:00:00 16 21 Oeste 39 Oeste 0 -- -- 55
2019-12-01 08:00:00 14.9 24 Oeste 41 Oeste 0 -- -- 68
2019-12-01 07:00:00 16.8 23 Noroeste 47 Oeste 0 -- -- 57
2019-12-01 06:00:00 14.3 32 Oeste 46 Oeste 0 -- -- 69
2019-12-01 05:00:00 14.1 32 Oeste 49 Oeste 0 -- -- 69
2019-12-01 04:00:00 17.1 30 Noroeste 45 Oeste 0 -- -- 54
2019-12-01 03:00:00 16.4 13 Oeste 24 Oeste 0 -- -- 53
2019-12-01 02:00:00 16.9 8 Oeste 25 Oeste 0 -- -- 48
2019-12-01 01:00:00 16.7 15 Oeste 27 Oeste 0 -- -- 52
2019-12-01 00:00:00 12.4 3 Sur 10 Sur 0 -- -- 79
2019-11-30 23:00:00 12.2 3 Sur 6 Sudoeste 0 -- -- 80
2019-11-30 22:00:00 13.2 0 Calma 9 Sudeste 0 -- -- 75
2019-11-30 21:00:00 12.5 3 Sudoeste 6 Sudeste 0 -- -- 82
2019-11-30 20:00:00 13.5 4 Sur 9 Noroeste 0 -- -- 67
2019-11-30 19:00:00 13 0 Calma 7 Noroeste 0 -- -- 79
2019-11-30 18:00:00 13.9 0 Calma 4 Oeste 0 -- -- 81
2019-11-30 17:00:00 14.7 0 Calma 5 Noroeste 0 -- -- 82
2019-11-30 16:00:00 18.2 0 Calma 5 Nordeste 0 -- -- 68
2019-11-30 15:00:00 18.2 2 Este 7 Nordeste 0 -- -- 64
2019-11-30 14:00:00 18.1 3 Este 8 Este 0 -- -- 65
2019-11-30 13:00:00 18.2 4 Este 9 Este 0 -- -- 62
2019-11-30 12:00:00 17.7 8 Sudeste 12 Sudeste 0 -- -- 64
2019-11-30 11:00:00 18 4 Este 7 Nordeste 0 -- -- 63
2019-11-30 10:00:00 16.6 0 Calma 3 Sudeste 0 -- -- 66
2019-11-30 09:00:00 13.6 0 Calma 3 Norte 0 -- -- 68
2019-11-30 08:00:00 12.5 0 Calma 3 Sudeste 0 -- -- 66
2019-11-30 07:00:00 13.5 0 Calma 5 Sudeste 0 -- -- 61
2019-11-30 06:00:00 14.7 0 Calma 6 Oeste 0 -- -- 56
2019-11-30 05:00:00 13.1 0 Calma 5 Noroeste 0 -- -- 62
2019-11-30 04:00:00 14.9 0 Calma 8 Oeste 0 -- -- 53
2019-11-30 03:00:00 13.7 0 Calma 4 Sudeste 0 -- -- 61
2019-11-30 02:00:00 14.7 0 Calma 8 Oeste 0 -- -- 59
2019-11-30 01:00:00 14.2 3 Oeste 6 Noroeste 0 -- -- 64
2019-11-30 00:00:00 13.8 0 Calma 4 Noroeste 0 -- -- 67
2019-11-29 23:00:00 14.5 0 Calma 3 Sudoeste 0 -- -- 63
2019-11-29 22:00:00 14.3 2 Oeste 8 Oeste 0 -- -- 64
2019-11-29 21:00:00 13.5 2 Oeste 5 Sudeste 0 -- -- 75
2019-11-29 20:00:00 13.6 2 Sudoeste 4 Sudoeste 0 -- -- 76
2019-11-29 19:00:00 13.8 2 Oeste 7 Oeste 0 -- -- 76
2019-11-29 18:00:00 13.8 0 Calma 4 Sudoeste 0 -- -- 75
2019-11-29 17:00:00 14.7 0 Calma 4 Oeste 0 -- -- 73
2019-11-29 16:00:00 17.1 2 Sur 9 Sudeste 0 -- -- 66
2019-11-29 15:00:00 17.8 5 Sudeste 12 Sudeste 0 -- -- 57
2019-11-29 14:00:00 17.5 8 Sudeste 12 Sudeste 0 -- -- 61
2019-11-29 13:00:00 17.1 8 Sudeste 13 Sudeste 0 -- -- 59
2019-11-29 12:00:00 17 8 Sudeste 12 Sudeste 0 -- -- 61
2019-11-29 11:00:00 17 4 Este 6 Este 0 -- -- 64
2019-11-29 10:00:00 15.9 3 Este 9 Sudeste 0 -- -- 70
2019-11-29 09:00:00 13.6 2 Sudoeste 4 Sudoeste 0 -- -- 62
2019-11-29 08:00:00 11.3 0 Calma 6 Sur 0 -- -- 75
2019-11-29 07:00:00 11.5 3 Sudoeste 7 Sur 0 -- -- 75
2019-11-29 06:00:00 11.8 0 Calma 5 Sudeste 0 -- -- 70
2019-11-29 05:00:00 12.4 4 Sudoeste 10 Sur 0 -- -- 66
2019-11-29 04:00:00 12.4 2 Sudeste 7 Noroeste 0 -- -- 63
2019-11-29 03:00:00 13.4 4 Sudeste 15 Oeste 0 -- -- 62
2019-11-29 02:00:00 14.6 8 Oeste 15 Oeste 0 -- -- 53
2019-11-29 01:00:00 13.1 7 Oeste 12 Oeste 0 -- -- 62
2019-11-29 00:00:00 14.1 3 Oeste 17 Noroeste 0 -- -- 56
2019-11-28 23:00:00 15.4 9 Oeste 18 Oeste 0 -- -- 52
2019-11-28 22:00:00 14.9 4 Norte 19 Oeste 0 -- -- 56
2019-11-28 21:00:00 14.6 8 Oeste 14 Oeste 0 -- -- 60
2019-11-28 20:00:00 14.1 3 Sudeste 9 Noroeste 0 -- -- 69
2019-11-28 19:00:00 14.2 3 Sur 8 Sudeste 0 -- -- 67
2019-11-28 18:00:00 14.7 2 Sur 5 Este 0 -- -- 67
2019-11-28 17:00:00 15.8 0 Calma 6 Sudeste 0 -- -- 64
2019-11-28 16:00:00 18.7 0 Calma 16 Oeste 0 -- -- 56
2019-11-28 15:00:00 17.9 9 Oeste 16 Oeste 0 -- -- 53
2019-11-28 14:00:00 18.1 8 Este 16 Sudeste 0 -- -- 54
2019-11-28 13:00:00 18.3 9 Sudeste 13 Sudeste 0 -- -- 56
2019-11-28 12:00:00 19.1 3 Sudeste 10 Sudeste 0 -- -- 56
2019-11-28 11:00:00 17.3 6 Este 13 Sudeste 0 -- -- 59
2019-11-28 10:00:00 17.8 5 Este 9 Sudeste 0 -- -- 53
2019-11-28 09:00:00 15 0 Calma 7 Oeste 0 -- -- 59
2019-11-28 08:00:00 13.4 2 Noroeste 6 Noroeste 0 -- -- 60
2019-11-28 07:00:00 14.3 2 Noroeste 11 Oeste 0 -- -- 57
2019-11-28 06:00:00 14.6 6 Oeste 14 Oeste 0 -- -- 55
2019-11-28 05:00:00 14.3 3 Noroeste 10 Oeste 0 -- -- 54
2019-11-28 04:00:00 14.4 7 Oeste 23 Noroeste 0 -- -- 55
2019-11-28 03:00:00 15.3 9 Oeste 22 Oeste 0 -- -- 50
2019-11-28 02:00:00 16.4 13 Noroeste 42 Noroeste 0 -- -- 47
2019-11-28 01:00:00 16.9 18 Noroeste 53 Oeste 0 -- -- 46
2019-11-28 00:00:00 17.1 33 Noroeste 58 Oeste 0 -- -- 45
2019-11-27 23:00:00 17.4 33 Noroeste 59 Noroeste 0 -- -- 45
2019-11-27 22:00:00 17.5 38 Noroeste 62 Oeste 0 -- -- 46
2019-11-27 21:00:00 17.4 39 Noroeste 59 Noroeste 0 -- -- 48
2019-11-27 20:00:00 17.4 46 Oeste 74 Oeste 0 -- -- 48
2019-11-27 19:00:00 17.9 53 Noroeste 72 Oeste 0 -- -- 44
2019-11-27 18:00:00 18.1 43 Noroeste 67 Oeste 0 -- -- 44
2019-11-27 17:00:00 18.8 33 Noroeste 60 Oeste 0 -- -- 46
2019-11-27 16:00:00 19.7 31 Noroeste 68 Noroeste 0 -- -- 44
2019-11-27 15:00:00 19.5 26 Oeste 56 Noroeste 0 -- -- 57
2019-11-27 14:00:00 20.3 32 Noroeste 53 Noroeste 0 -- -- 44
2019-11-27 06:00:00 -- -- -- -- -- -- -- -- --
2019-11-27 05:00:00 15.7 35 Oeste 57 Oeste 0 -- -- 72
2019-11-27 04:00:00 16.1 32 Oeste 52 Oeste 0 -- -- 68
2019-11-27 03:00:00 15.5 33 Oeste 54 Oeste 0 -- -- 69
2019-11-27 02:00:00 15.6 36 Oeste 55 Oeste 0 -- -- 69
2019-11-27 01:00:00 15.8 32 Oeste 51 Oeste 0 -- -- 70
2019-11-27 00:00:00 15.6 33 Oeste 50 Oeste 0 -- -- 72
2019-11-26 23:00:00 16.3 26 Oeste 39 Oeste 0 -- -- 71
2019-11-26 22:00:00 17.5 25 Oeste 40 Oeste 0 -- -- 64
2019-11-26 21:00:00 18.4 26 Oeste 41 Oeste 0 -- -- 59
2019-11-26 20:00:00 19.5 24 Oeste 39 Noroeste 0 -- -- 52
2019-11-26 19:00:00 19.7 24 Noroeste 38 Noroeste 0 -- -- 54
2019-11-26 18:00:00 19 9 Noroeste 26 Oeste 0 -- -- 60
2019-11-26 17:00:00 20.5 13 Oeste 31 Oeste 0 -- -- 54
2019-11-26 16:00:00 20.7 14 Oeste 25 Oeste 0 -- -- 53
2019-11-26 15:00:00 20.3 4 Nordeste 9 Oeste 0 -- -- 57
2019-11-26 14:00:00 20.7 3 Noroeste 9 Oeste 0 -- -- 47
2019-11-26 13:00:00 19.4 5 Este 12 Sudeste 0 -- -- 59
2019-11-26 12:00:00 20.3 4 Sudeste 9 Este 0 -- -- 57
2019-11-26 11:00:00 20.1 5 Sudeste 9 Sudeste 0 -- -- 52
2019-11-26 10:00:00 20.4 0 Calma 8 Oeste 0 -- -- 51
2019-11-26 09:00:00 17.4 4 Oeste 10 Noroeste 0 -- -- 58
2019-11-26 08:00:00 15 0 Calma 6 Sur 0 -- -- 64
2019-11-26 07:00:00 15.9 4 Oeste 10 Oeste 0 -- -- 61
2019-11-26 06:00:00 16.4 7 Oeste 16 Oeste 0 -- -- 59
2019-11-26 05:00:00 16.6 12 Oeste 19 Oeste 0 -- -- 60
2019-11-26 04:00:00 15.2 5 Oeste 14 Oeste 0 -- -- 68
2019-11-26 03:00:00 15.3 4 Sur 9 Noroeste 0 -- -- 68
2019-11-26 02:00:00 16.2 0 Calma 15 Oeste 0 -- -- 65
2019-11-26 01:00:00 17.2 9 Oeste 27 Norte 0 -- -- 62
2019-11-26 00:00:00 16.8 6 Norte 21 Noroeste 0 -- -- 64
2019-11-25 23:00:00 17.4 8 Sur 49 Oeste 0 -- -- 61
2019-11-25 22:00:00 19.4 32 Oeste 55 Oeste 0 -- -- 59
2019-11-25 21:00:00 20 22 Oeste 65 Oeste 0 -- -- 55
2019-11-25 20:00:00 19.6 42 Oeste 65 Oeste 0 -- -- 57
2019-11-25 19:00:00 19.2 45 Oeste 71 Oeste 0 -- -- 58
2019-11-25 18:00:00 17.5 47 Oeste 73 Oeste 0 -- -- 66
2019-11-25 17:00:00 17.1 45 Oeste 73 Oeste 0 -- -- 68
2019-11-25 16:00:00 19.3 46 Oeste 73 Oeste 0 -- -- 61
2019-11-25 15:00:00 19.8 45 Oeste 67 Oeste 0 -- -- 59
2019-11-25 14:00:00 20.2 41 Oeste 63 Oeste 0 -- -- 56
2019-11-25 13:00:00 19.6 27 Noroeste 44 Oeste 0 -- -- 56
2019-11-25 12:00:00 16.2 10 Sudeste 45 Norte 0 -- -- 56
2019-11-25 11:00:00 16.5 7 Sudeste 20 Sur 0 -- -- 48
2019-11-25 10:00:00 16.1 12 Sudeste 24 Sur 0 -- -- 52
2019-11-25 09:00:00 13.4 0 Calma 5 Oeste 0 -- -- 58
2019-11-25 08:00:00 11.4 0 Calma 8 Sudoeste 0 -- -- 55
2019-11-25 07:00:00 12 3 Sudoeste 9 Sudoeste 0 -- -- 52
2019-11-25 06:00:00 12.5 9 Sudoeste 16 Oeste 0 -- -- 50
2019-11-25 05:00:00 12 10 Oeste 14 Oeste 0 -- -- 54
2019-11-25 04:00:00 11.3 6 Oeste 9 Oeste 0 -- -- 55
2019-11-25 03:00:00 12 3 Sur 12 Oeste 0 -- -- 48
2019-11-25 02:00:00 13.1 11 Oeste 18 Oeste 0 -- -- 49
2019-11-25 01:00:00 13.9 10 Noroeste 30 Noroeste 0 -- -- 41
2019-11-25 00:00:00 13.3 16 Noroeste 27 Noroeste 0 -- -- 47
2019-11-24 23:00:00 13.2 13 Oeste 20 Oeste 0 -- -- 44
2019-11-24 22:00:00 13.5 11 Noroeste 23 Oeste 0 -- -- 44
2019-11-24 21:00:00 13.6 11 Noroeste 19 Noroeste 0 -- -- 47
2019-11-24 20:00:00 13.4 5 Oeste 16 Oeste 0 -- -- 48
2019-11-24 19:00:00 12.5 3 Sudoeste 12 Oeste 0 -- -- 53
2019-11-24 18:00:00 14.4 2 Noroeste 32 Oeste 0 -- -- 47
2019-11-24 17:00:00 14.7 18 Oeste 32 Oeste 0 -- -- 51
2019-11-24 16:00:00 17.2 0 Calma 12 Sudeste 0 -- -- 44
2019-11-24 15:00:00 17.5 6 Sudeste 10 Sudeste 0 -- -- 36
2019-11-24 14:00:00 17.1 4 Este 10 Este 0 -- -- 36
2019-11-24 13:00:00 15.8 8 Sudeste 14 Sudeste 0 -- -- 40
2019-11-24 12:00:00 16.6 9 Sudeste 17 Sudeste 0 -- -- 39
2019-11-24 11:00:00 15.9 3 Oeste 9 Oeste 0 -- -- 39
2019-11-24 10:00:00 14.6 3 Este 10 Noroeste 0 -- -- 41
2019-11-24 09:00:00 12.4 4 Oeste 15 Sudoeste 0 -- -- 44
2019-11-24 08:00:00 11.2 12 Oeste 20 Norte 0 -- -- 46
2019-11-24 07:00:00 11.9 4 Este 14 Sudoeste 0 -- -- 42
2019-11-24 06:00:00 13.4 7 Noroeste 49 Noroeste 0 -- -- 37
2019-11-24 05:00:00 13 14 Oeste 51 Noroeste 0 -- -- 44
2019-11-24 04:00:00 13.4 29 Noroeste 53 Noroeste 0 -- -- 42
2019-11-24 03:00:00 13.3 22 Noroeste 57 Noroeste 0 -- -- 46
2019-11-24 02:00:00 13.4 34 Noroeste 61 Noroeste 0 -- -- 46
2019-11-24 01:00:00 13.5 37 Noroeste 54 Noroeste 0 -- -- 46
2019-11-24 00:00:00 13.5 32 Oeste 50 Oeste 0 -- -- 45
2019-11-23 23:00:00 13.5 27 Oeste 56 Oeste 0 -- -- 49
2019-11-23 22:00:00 14 24 Oeste 57 Oeste 0 -- -- 42
2019-11-23 21:00:00 13.9 34 Oeste 66 Oeste 0 -- -- 47
2019-11-23 20:00:00 14.3 36 Oeste 71 Oeste 0 -- -- 47
2019-11-23 19:00:00 14.5 42 Noroeste 72 Oeste 0 -- -- 48
2019-11-23 18:00:00 14.5 31 Noroeste 67 Oeste 0 -- -- 50
2019-11-23 17:00:00 15 35 Noroeste 66 Noroeste 0 -- -- 47
2019-11-23 16:00:00 15.5 36 Noroeste 77 Noroeste 0 -- -- 44
2019-11-23 15:00:00 15.8 44 Noroeste 78 Noroeste 0 -- -- 40
2019-11-23 14:00:00 15.9 45 Noroeste 80 Oeste 0 -- -- 42
2019-11-23 13:00:00 15.9 45 Noroeste 81 Noroeste 0 -- -- 43
2019-11-23 12:00:00 15.1 29 Noroeste 53 Noroeste 0 -- -- 49
2019-11-23 11:00:00 14.7 27 Noroeste 60 Noroeste 0 -- -- 53
2019-11-23 10:00:00 14.6 39 Noroeste 61 Noroeste 0 -- -- 53
2019-11-23 09:00:00 13.4 26 Oeste 69 Noroeste 0 -- -- 56
2019-11-23 08:00:00 13.5 35 Noroeste 60 Norte 0 -- -- 57
2019-11-23 07:00:00 14.4 28 Oeste 59 Oeste 0 -- -- 54
2019-11-23 06:00:00 15 32 Noroeste 63 Noroeste 0 -- -- 48
2019-11-23 05:00:00 15.2 40 Noroeste 82 Oeste 0 -- -- 47
2019-11-23 04:00:00 15.4 46 Noroeste 70 Noroeste 0 -- -- 47
2019-11-23 03:00:00 16.3 44 Noroeste 78 Noroeste 0 -- -- 48
2019-11-23 02:00:00 15.9 52 Noroeste 83 Noroeste 0 -- -- 49
2019-11-23 01:00:00 15.9 41 Noroeste 80 Oeste 0 -- -- 47
2019-11-23 00:00:00 15.8 34 Noroeste 63 Oeste 0 -- -- 49
2019-11-22 23:00:00 15.6 36 Noroeste 67 Noroeste 1.8 -- -- 59
2019-11-22 22:00:00 15.3 29 Oeste 61 Oeste 7.8 -- -- 95
2019-11-22 21:00:00 15.2 21 Noroeste 46 Noroeste 4.4 -- -- 94
2019-11-22 20:00:00 15.7 17 Oeste 55 Sudoeste 1.6 -- -- 93
2019-11-22 19:00:00 14.9 10 Noroeste 31 Noroeste 1.6 -- -- 94
2019-11-22 18:00:00 14.1 13 Noroeste 31 Oeste 1.6 -- -- 94
2019-11-22 17:00:00 13.1 3 Noroeste 8 Sudoeste 6.6 -- -- 96
2019-11-22 16:00:00 12.8 0 Calma 3 Norte 4.2 -- -- 96
2019-11-22 15:00:00 13 0 Calma 6 Nordeste 1.4 -- -- 96
2019-11-22 14:00:00 13.1 0 Calma 11 Oeste 4.6 -- -- 95
2019-11-22 13:00:00 13.1 8 Oeste 16 Noroeste 4.2 -- -- 94
2019-11-22 12:00:00 13.6 3 Este 15 Sudoeste 3.6 -- -- 96
2019-11-22 11:00:00 13.2 4 Sur 10 Sudeste 4 -- -- 96
2019-11-22 10:00:00 12.9 0 Calma 15 Sudoeste 6 -- -- 95
2019-11-22 09:00:00 12.9 9 Oeste 23 Sudoeste 8 -- -- 93
2019-11-22 08:00:00 12.8 10 Oeste 29 Oeste 3.4 -- -- 93
2019-11-22 07:00:00 12.7 19 Oeste 43 Oeste 8.6 -- -- 92
2019-11-22 06:00:00 13.1 27 Oeste 49 Oeste 5.8 -- -- 92
2019-11-22 05:00:00 13.4 16 Oeste 33 Noroeste 2.8 -- -- 92
2019-11-22 04:00:00 13.5 9 Oeste 30 Oeste 1.2 -- -- 93
2019-11-22 03:00:00 13.5 10 Oeste 28 Noroeste 3.2 -- -- 92
2019-11-22 02:00:00 13.5 14 Oeste 30 Oeste 0.2 -- -- 93
2019-11-22 01:00:00 13.3 15 Oeste 27 Oeste 0.8 -- -- 94
2019-11-22 00:00:00 13.2 13 Oeste 28 Oeste 1.4 -- -- 93
2019-11-21 23:00:00 13 13 Oeste 30 Oeste 1.2 -- -- 92
2019-11-21 22:00:00 12.8 9 Oeste 23 Oeste 4.8 -- -- 93
2019-11-21 21:00:00 12.6 4 Noroeste 15 Oeste 3.2 -- -- 94
2019-11-21 20:00:00 12.6 6 Noroeste 18 Oeste 2 -- -- 92
2019-11-21 19:00:00 12.8 7 Oeste 19 Oeste 1 -- -- 90
2019-11-21 18:00:00 13.5 3 Oeste 16 Oeste 0.4 -- -- 85
2019-11-21 17:00:00 13.6 8 Oeste 24 Oeste 0.2 -- -- 86
2019-11-21 16:00:00 13.9 16 Noroeste 29 Noroeste 0 -- -- 84
2019-11-21 15:00:00 13.5 11 Noroeste 30 Noroeste 0 -- -- 87
2019-11-21 14:00:00 13.5 16 Noroeste 32 Oeste 0.4 -- -- 87
2019-11-21 13:00:00 12.9 11 Oeste 30 Oeste 2.6 -- -- 88
2019-11-21 12:00:00 13.1 10 Oeste 22 Noroeste 0.2 -- -- 86
2019-11-21 11:00:00 12.4 10 Oeste 26 Oeste 2.8 -- -- 87
2019-11-21 10:00:00 13.9 10 Oeste 23 Noroeste 0 -- -- 71
2019-11-21 09:00:00 13.1 10 Noroeste 26 Oeste 0 -- -- 69
2019-11-21 08:00:00 -- -- -- -- -- -- -- -- --
2019-11-21 07:00:00 -- -- -- -- -- -- -- -- --
2019-11-21 06:00:00 -- -- -- -- -- -- -- -- --
2019-11-21 05:00:00 -- -- -- -- -- -- -- -- --
2019-11-21 04:00:00 -- -- -- -- -- -- -- -- --
2019-11-21 03:00:00 -- -- -- -- -- -- -- -- --
2019-11-21 02:00:00 -- -- -- -- -- -- -- -- --
2019-11-21 01:00:00 -- -- -- -- -- -- -- -- --
2019-11-21 00:00:00 -- -- -- -- -- -- -- -- --
2019-11-20 23:00:00 -- -- -- -- -- -- -- -- --
2019-11-20 22:00:00 -- -- -- -- -- -- -- -- --
2019-11-20 21:00:00 11.5 17 Noroeste 32 Oeste 0.2 -- -- 84
2019-11-20 20:00:00 11.5 13 Oeste 21 Oeste 0.2 -- -- 85
2019-11-20 19:00:00 11.9 10 Noroeste 22 Oeste 0 -- -- 80
2019-11-20 18:00:00 12.2 9 Noroeste 33 Oeste 0 -- -- 76
2019-11-20 17:00:00 12.4 16 Oeste 31 Oeste 0 -- -- 75
2019-11-20 16:00:00 11.8 15 Oeste 31 Oeste 0.6 -- -- 79
2019-11-20 15:00:00 11.4 13 Noroeste 31 Oeste 0.2 -- -- 82
2019-11-20 14:00:00 12.5 16 Oeste 31 Oeste 0 -- -- 78
2019-11-20 13:00:00 14.9 11 Oeste 31 Oeste 0 -- -- 59
2019-11-20 12:00:00 14.7 12 Oeste 26 Oeste 0 -- -- 48
2019-11-20 11:00:00 15.3 7 Oeste 21 Oeste 0 -- -- 53
2019-11-20 10:00:00 14 0 Calma 10 Sudoeste 0 -- -- 49
2019-11-20 09:00:00 11.5 3 Sudoeste 8 Sudoeste 0 -- -- 57
2019-11-20 08:00:00 9.7 3 Sur 8 Oeste 0 -- -- 62
2019-11-20 07:00:00 10 5 Sudoeste 9 Sudoeste 0 -- -- 60
2019-11-20 06:00:00 9.8 3 Sur 5 Sudoeste 0 -- -- 62
2019-11-20 05:00:00 11 5 Oeste 9 Oeste 0 -- -- 62
2019-11-20 04:00:00 10.9 6 Oeste 8 Oeste 0 -- -- 68
2019-11-20 03:00:00 11 0 Calma 6 Sudeste 0 -- -- 66
2019-11-20 02:00:00 10.7 0 Calma 5 Sudeste 0 -- -- 54
2019-11-20 01:00:00 11.8 2 Oeste 5 Norte 0 -- -- 50
2019-11-20 00:00:00 11.8 3 Oeste 6 Oeste 0 -- -- 51
2019-11-19 23:00:00 12.2 7 Oeste 11 Oeste 0 -- -- 53
2019-11-19 22:00:00 11.7 3 Sudoeste 6 Sudoeste 0 -- -- 53
2019-11-19 21:00:00 11.2 4 Sur 9 Sudoeste 0 -- -- 54
2019-11-19 20:00:00 11.6 3 Sudoeste 18 Oeste 0 -- -- 52
2019-11-19 19:00:00 11.8 6 Oeste 17 Sudoeste 0 -- -- 50
2019-11-19 18:00:00 12.4 6 Oeste 19 Oeste 0 -- -- 55
2019-11-19 17:00:00 13.5 7 Oeste 21 Oeste 0 -- -- 53
2019-11-19 16:00:00 14.6 12 Sudoeste 23 Sur 0 -- -- 47
2019-11-19 15:00:00 15.6 10 Sudoeste 22 Sudoeste 0 -- -- 42
2019-11-19 14:00:00 15.8 8 Sudoeste 19 Sur 0 -- -- 45
2019-11-19 13:00:00 15.8 8 Sur 20 Sudeste 0 -- -- 44
2019-11-19 12:00:00 15.9 11 Sudeste 19 Sudeste 0 -- -- 42
2019-11-19 11:00:00 15.6 6 Este 9 Nordeste 0 -- -- 41
2019-11-19 10:00:00 14 3 Oeste 7 Noroeste 0 -- -- 45
2019-11-19 09:00:00 12.1 3 Oeste 8 Oeste 0 -- -- 49
2019-11-19 08:00:00 11.3 4 Oeste 10 Noroeste 0 -- -- 51
2019-11-19 07:00:00 11.4 4 Sur 13 Sudoeste 0 -- -- 52
2019-11-19 06:00:00 11.3 6 Sudoeste 12 Oeste 0 -- -- 52
2019-11-19 05:00:00 12 7 Oeste 14 Oeste 0 -- -- 48
2019-11-19 04:00:00 12.1 6 Oeste 17 Oeste 0 -- -- 51
2019-11-19 03:00:00 11.7 5 Oeste 11 Noroeste 0 -- -- 50
2019-11-19 02:00:00 11.3 3 Sur 13 Oeste 0 -- -- 54
2019-11-19 01:00:00 12.4 9 Oeste 17 Oeste 0 -- -- 47
2019-11-19 00:00:00 11.5 0 Calma 6 Oeste 0 -- -- 48
2019-11-18 23:00:00 12.1 3 Oeste 7 Oeste 0 -- -- 50
2019-11-18 22:00:00 12.6 4 Oeste 8 Oeste 0 -- -- 48
2019-11-18 21:00:00 12.9 4 Oeste 10 Noroeste 0 -- -- 46
2019-11-18 20:00:00 13.1 5 Oeste 9 Oeste 0 -- -- 45
2019-11-18 19:00:00 13.1 0 Calma 6 Noroeste 0 -- -- 47
2019-11-18 18:00:00 13.4 3 Sudoeste 10 Sur 0 -- -- 48
2019-11-18 17:00:00 14 6 Sur 12 Sudeste 0 -- -- 46
2019-11-18 16:00:00 17.7 4 Sudeste 10 Este 0 -- -- 40
2019-11-18 15:00:00 16.5 8 Este 14 Sudeste 0 -- -- 41
2019-11-18 14:00:00 16.7 10 Sudeste 18 Sudeste 0 -- -- 46
2019-11-18 13:00:00 17 9 Sudeste 17 Sudeste 0 -- -- 61
2019-11-18 12:00:00 16.1 9 Sudeste 24 Este 0 -- -- 65
2019-11-18 11:00:00 16.2 7 Sur 46 Oeste 0 -- -- 57
2019-11-18 10:00:00 14.3 24 Oeste 65 Oeste 0 -- -- 46
2019-11-18 09:00:00 13.6 43 Oeste 66 Oeste 0 -- -- 48
2019-11-18 08:00:00 12.8 30 Oeste 49 Oeste 0 -- -- 61
2019-11-18 07:00:00 13.1 24 Oeste 49 Oeste 0.2 -- -- 71
2019-11-18 06:00:00 12.8 19 Oeste 40 Oeste 0 -- -- 86
2019-11-18 05:00:00 12.9 19 Oeste 39 Oeste 0.4 -- -- 88
2019-11-18 04:00:00 12.8 22 Oeste 46 Oeste 1.4 -- -- 87
2019-11-18 03:00:00 13.1 31 Oeste 57 Oeste 0 -- -- 89
2019-11-18 02:00:00 13.2 33 Oeste 54 Oeste 0 -- -- 86
2019-11-18 01:00:00 12.8 29 Oeste 58 Oeste 0 -- -- 88
2019-11-18 00:00:00 13 28 Oeste 48 Oeste 0 -- -- 87
2019-11-17 23:00:00 12.9 30 Oeste 50 Oeste 0 -- -- 88
2019-11-17 22:00:00 13 28 Oeste 45 Noroeste 0 -- -- 84
2019-11-17 21:00:00 12.8 22 Oeste 45 Oeste 0 -- -- 82
2019-11-17 20:00:00 12.7 25 Oeste 49 Oeste 0 -- -- 87
2019-11-17 19:00:00 12.8 24 Oeste 57 Oeste 0 -- -- 81
2019-11-17 18:00:00 12.9 31 Oeste 51 Oeste 0 -- -- 79
2019-11-17 17:00:00 12.9 32 Oeste 52 Oeste 0 -- -- 76
2019-11-17 16:00:00 14.2 34 Oeste 53 Oeste 0 -- -- 64
2019-11-17 15:00:00 14.1 29 Oeste 44 Oeste 0 -- -- 56
2019-11-17 14:00:00 14.4 28 Oeste 48 Oeste 0 -- -- 53
2019-11-17 13:00:00 14.1 33 Oeste 54 Oeste 0 -- -- 55
2019-11-17 12:00:00 14.7 34 Oeste 50 Oeste 0 -- -- 42
2019-11-17 11:00:00 15.6 4 Sudeste 14 Sudeste 0 -- -- 35
2019-11-17 10:00:00 14.2 8 Este 24 Sudeste 0 -- -- 42
2019-11-17 09:00:00 12.5 7 Sur 21 Sudeste 0 -- -- 43
2019-11-17 08:00:00 10.4 6 Sur 30 Sudeste 0 -- -- 47
2019-11-17 07:00:00 11.2 8 Este 51 Oeste 0 -- -- 42
2019-11-17 06:00:00 12.2 25 Noroeste 54 Oeste 0 -- -- 31
2019-11-17 05:00:00 12.2 24 Noroeste 44 Noroeste 0 -- -- 30
2019-11-17 04:00:00 10.3 4 Oeste 16 Oeste 0 -- -- 38
2019-11-17 03:00:00 10.2 9 Oeste 18 Oeste 0 -- -- 39
2019-11-17 02:00:00 10.4 10 Oeste 17 Oeste 0 -- -- 40
2019-11-17 01:00:00 10.8 10 Oeste 15 Oeste 0 -- -- 39
2019-11-17 00:00:00 10.9 12 Oeste 26 Noroeste 0 -- -- 33
2019-11-16 23:00:00 10.9 14 Oeste 23 Oeste 0 -- -- 35
2019-11-16 22:00:00 11.7 7 Oeste 15 Oeste 0 -- -- 30
2019-11-16 21:00:00 12.3 9 Oeste 24 Noroeste 0 -- -- 30
2019-11-16 20:00:00 12.2 10 Oeste 18 Oeste 0 -- -- 31
2019-11-16 19:00:00 12.8 13 Oeste 25 Oeste 0 -- -- 31
2019-11-16 18:00:00 14 21 Oeste 37 Oeste 0 -- -- 33
2019-11-16 17:00:00 14.1 14 Oeste 33 Oeste 0 -- -- 35
2019-11-16 16:00:00 14.8 21 Oeste 35 Oeste 0 -- -- 35
2019-11-16 15:00:00 14.5 16 Oeste 32 Oeste 0 -- -- 37
2019-11-16 14:00:00 14.9 12 Sudoeste 28 Oeste 0 -- -- 35
2019-11-16 13:00:00 14.1 20 Oeste 30 Oeste 0 -- -- 38
2019-11-16 12:00:00 14 12 Sudeste 18 Este 0 -- -- 36
2019-11-16 11:00:00 13.9 8 Este 13 Sudeste 0 -- -- 37
2019-11-16 10:00:00 13.6 3 Este 17 Noroeste 0 -- -- 32
2019-11-16 09:00:00 10.8 7 Noroeste 18 Oeste 0 -- -- 37
2019-11-16 08:00:00 9 10 Oeste 19 Oeste 0 -- -- 39
2019-11-16 07:00:00 8.6 12 Oeste 21 Oeste 0 -- -- 42
2019-11-16 06:00:00 9.3 7 Oeste 21 Oeste 0 -- -- 38
2019-11-16 05:00:00 9.1 10 Oeste 17 Oeste 0 -- -- 39
2019-11-16 04:00:00 9.2 8 Oeste 14 Oeste 0 -- -- 38
2019-11-16 03:00:00 9.3 7 Oeste 14 Oeste 0 -- -- 38
2019-11-16 02:00:00 9.4 6 Oeste 17 Oeste 0 -- -- 36
2019-11-16 01:00:00 9.4 10 Oeste 15 Oeste 0 -- -- 37
2019-11-16 00:00:00 9.5 5 Oeste 27 Noroeste 0 -- -- 37
2019-11-15 23:00:00 9.5 11 Oeste 24 Noroeste 0 -- -- 42
2019-11-15 22:00:00 9.8 10 Oeste 20 Noroeste 0 -- -- 38
2019-11-15 21:00:00 10.7 9 Noroeste 32 Noroeste 0 -- -- 39
2019-11-15 20:00:00 10.5 21 Oeste 39 Noroeste 0 -- -- 42
2019-11-15 19:00:00 10.7 28 Noroeste 49 Oeste 0 -- -- 37
2019-11-15 18:00:00 11.1 24 Noroeste 46 Oeste 0 -- -- 36
2019-11-15 17:00:00 12.1 30 Oeste 45 Noroeste 0 -- -- 37
2019-11-15 16:00:00 13.2 19 Noroeste 33 Oeste 0 -- -- 34
2019-11-15 15:00:00 13.5 21 Noroeste 45 Noroeste 0 -- -- 33
2019-11-15 14:00:00 13.7 22 Noroeste 54 Noroeste 0 -- -- 32
2019-11-15 13:00:00 13.3 34 Oeste 60 Oeste 0 -- -- 33
2019-11-15 12:00:00 12.9 37 Oeste 55 Noroeste 0 -- -- 34
2019-11-15 11:00:00 11.6 42 Oeste 69 Oeste 0 -- -- 32
2019-11-15 10:00:00 11.1 49 Noroeste 79 Oeste 0 -- -- 39
2019-11-15 09:00:00 10.2 55 Noroeste 81 Oeste 0 -- -- 46
2019-11-15 08:00:00 9.8 55 Oeste 77 Noroeste 0 -- -- 48
2019-11-15 07:00:00 9.9 50 Oeste 75 Oeste 0 -- -- 49
2019-11-15 06:00:00 10.1 48 Oeste 67 Oeste 0 -- -- 51
2019-11-15 05:00:00 10.5 35 Oeste 55 Noroeste 0 -- -- 49
2019-11-15 04:00:00 11.1 32 Noroeste 56 Oeste 0 -- -- 48
2019-11-15 03:00:00 11.4 34 Noroeste 58 Noroeste 0 -- -- 47
2019-11-15 02:00:00 11.4 33 Noroeste 66 Noroeste 0 -- -- 50
2019-11-15 01:00:00 11.2 33 Oeste 64 Oeste 0 -- -- 54
2019-11-15 00:00:00 11.8 40 Noroeste 64 Noroeste 0 -- -- 52